Time;durP1;ratioP1;P1;durP2;ratioP2;P2;SDS_P1;SDS_P2;PMS_P1;PMS_P2;Temp;Humidity;BMP_temperature;BMP_pressure;BME280_temperature;BME280_humidity;BME280_pressure;Samples;Min_cycle;Max_cycle;Signal;HPM_P1;HPM_P2
2022/11/10 00:00:33;;;;;;;15.45;5.15;;;;;;;;;;5059153;28;20509;-67
2022/11/10 00:03:01;;;;;;;19.30;4.63;;;;;;;;;;5043860;28;20397;-66
2022/11/10 00:05:27;;;;;;;19.20;4.55;;;;;;;;;;5053630;28;20103;-66
2022/11/10 00:07:53;;;;;;;16.10;5.60;;;;;;;;;;5059318;28;20136;-67
2022/11/10 00:10:20;;;;;;;16.27;5.10;;;;;;;;;;5044246;28;20422;-67
2022/11/10 00:12:46;;;;;;;18.48;5.68;;;;;;;;;;5044029;28;20061;-68
2022/11/10 00:17:59;;;;;;;19.50;5.37;;;;;;;;;;5043650;28;20060;-67
2022/11/10 00:20:26;;;;;;;18.58;4.80;;;;;;;;;;5044396;28;20069;-68
2022/11/10 00:22:53;;;;;;;19.13;4.53;;;;;;;;;;5044378;28;20080;-67
2022/11/10 00:25:20;;;;;;;19.23;3.92;;;;;;;;;;5058781;28;20049;-67
2022/11/10 00:27:46;;;;;;;14.13;4.15;;;;;;;;;;5047445;28;20060;-66
2022/11/10 00:30:13;;;;;;;18.25;5.05;;;;;;;;;;5055475;28;20053;-69
2022/11/10 00:32:39;;;;;;;18.05;5.38;;;;;;;;;;5047574;28;20053;-67
2022/11/10 00:35:06;;;;;;;11.02;4.18;;;;;;;;;;5057420;28;20053;-68
2022/11/10 00:37:33;;;;;;;22.73;5.10;;;;;;;;;;5057010;28;20054;-67
2022/11/10 00:39:59;;;;;;;20.88;5.13;;;;;;;;;;5050000;28;20045;-68
2022/11/10 00:42:25;;;;;;;16.35;3.63;;;;;;;;;;5050138;28;20049;-67
2022/11/10 00:44:51;;;;;;;14.43;4.45;;;;;;;;;;5051693;28;20506;-68
2022/11/10 00:47:18;;;;;;;19.27;5.10;;;;;;;;;;5055936;28;20056;-67
2022/11/10 00:49:44;;;;;;;21.98;4.85;;;;;;;;;;5043257;28;20060;-67
2022/11/10 00:52:10;;;;;;;15.73;4.43;;;;;;;;;;5051392;28;20048;-66
2022/11/10 00:54:37;;;;;;;10.80;3.90;;;;;;;;;;5050930;28;20058;-67
2022/11/10 00:57:04;;;;;;;14.85;3.97;;;;;;;;;;5054130;28;20061;-68
2022/11/10 00:59:30;;;;;;;17.60;4.20;;;;;;;;;;5045033;28;21511;-67
2022/11/10 01:01:56;;;;;;;16.92;3.80;;;;;;;;;;5059576;28;20053;-68
2022/11/10 01:04:22;;;;;;;12.98;3.95;;;;;;;;;;5049015;28;20057;-67
2022/11/10 01:06:50;;;;;;;14.27;3.45;;;;;;;;;;5056977;28;20052;-67
2022/11/10 01:09:17;;;;;;;21.75;4.57;;;;;;;;;;5060874;28;20056;-67
2022/11/10 01:11:44;;;;;;;22.27;5.07;;;;;;;;;;5061285;28;20499;-67
2022/11/10 01:14:10;;;;;;;14.15;5.07;;;;;;;;;;5061582;28;20049;-66
2022/11/10 01:16:36;;;;;;;18.38;4.25;;;;;;;;;;5056546;28;20136;-67
2022/11/10 01:19:03;;;;;;;14.52;4.75;;;;;;;;;;5061347;28;20061;-68
2022/11/10 01:21:29;;;;;;;16.05;4.25;;;;;;;;;;5056762;28;20431;-66
2022/11/10 01:23:56;;;;;;;12.32;4.53;;;;;;;;;;5057989;28;20045;-67
2022/11/10 01:26:22;;;;;;;12.15;4.00;;;;;;;;;;5063763;28;20053;-67
2022/11/10 01:28:49;;;;;;;19.77;5.32;;;;;;;;;;5061017;28;20090;-67
2022/11/10 01:31:17;;;;;;;12.70;3.83;;;;;;;;;;5060541;28;20519;-67
2022/11/10 01:33:43;;;;;;;20.98;5.45;;;;;;;;;;5054543;28;20093;-67
2022/11/10 01:36:10;;;;;;;10.27;3.75;;;;;;;;;;5064369;28;20557;-66
2022/11/10 01:38:37;;;;;;;13.93;4.05;;;;;;;;;;5065510;28;20577;-66
2022/11/10 01:41:05;;;;;;;10.68;3.42;;;;;;;;;;5065436;28;20499;-67
2022/11/10 01:43:31;;;;;;;11.25;3.20;;;;;;;;;;5044301;28;20056;-67
2022/11/10 01:45:57;;;;;;;19.85;4.95;;;;;;;;;;5048031;28;20054;-68
2022/11/10 01:48:39;;;;;;;17.67;4.50;;;;;;;;;;5045652;28;20045;-67
2022/11/10 01:51:08;;;;;;;18.42;7.03;;;;;;;;;;5047044;28;20061;-67
2022/11/10 01:53:37;;;;;;;12.20;4.90;;;;;;;;;;5061737;28;20045;-68
2022/11/10 01:56:04;;;;;;;15.82;5.47;;;;;;;;;;5064173;28;20048;-67
2022/11/10 01:58:32;;;;;;;23.02;12.48;;;;;;;;;;5061451;28;20053;-66
2022/11/10 02:00:59;;;;;;;18.92;6.28;;;;;;;;;;5058493;28;20048;-67
2022/11/10 02:03:32;;;;;;;18.27;5.38;;;;;;;;;;5055211;28;20053;-66
2022/11/10 02:05:58;;;;;;;16.83;5.80;;;;;;;;;;5053416;28;20060;-66
2022/11/10 02:08:25;;;;;;;14.32;4.55;;;;;;;;;;5048140;28;20426;-68
2022/11/10 02:10:51;;;;;;;19.98;5.00;;;;;;;;;;5045033;28;20495;-67
2022/11/10 02:13:18;;;;;;;13.75;5.10;;;;;;;;;;5044839;28;20049;-67
2022/11/10 02:15:44;;;;;;;23.45;4.93;;;;;;;;;;5052609;28;20049;-68
2022/11/10 02:18:11;;;;;;;18.15;5.28;;;;;;;;;;5045592;28;20057;-67
2022/11/10 02:20:37;;;;;;;17.65;5.05;;;;;;;;;;5045770;28;20081;-68
2022/11/10 02:23:33;;;;;;;18.30;4.50;;;;;;;;;;5045485;28;20463;-67
2022/11/10 02:26:00;;;;;;;21.08;5.18;;;;;;;;;;5053052;28;20052;-66
2022/11/10 02:28:27;;;;;;;23.85;6.50;;;;;;;;;;5063035;28;20049;-68
2022/11/10 02:30:53;;;;;;;15.25;5.57;;;;;;;;;;5063948;28;20051;-65
2022/11/10 02:33:20;;;;;;;24.85;5.63;;;;;;;;;;5046695;28;20062;-65
2022/11/10 02:35:47;;;;;;;21.20;6.03;;;;;;;;;;5064659;28;20184;-66
2022/11/10 02:38:13;;;;;;;18.80;5.75;;;;;;;;;;5056794;28;20057;-68
2022/11/10 02:40:39;;;;;;;15.60;5.32;;;;;;;;;;5064196;28;20052;-67
2022/11/10 02:43:07;;;;;;;21.02;4.88;;;;;;;;;;5051018;28;20120;-65
2022/11/10 02:45:33;;;;;;;22.95;5.78;;;;;;;;;;5052393;28;20144;-66
2022/11/10 02:48:00;;;;;;;29.02;7.22;;;;;;;;;;5057257;28;20056;-65
2022/11/10 02:50:26;;;;;;;25.00;5.65;;;;;;;;;;5052518;28;20057;-67
2022/11/10 02:52:52;;;;;;;16.77;4.88;;;;;;;;;;5057484;28;20049;-66
2022/11/10 02:55:18;;;;;;;20.02;6.20;;;;;;;;;;5048628;28;20060;-66
2022/11/10 02:57:45;;;;;;;14.52;4.93;;;;;;;;;;5052479;28;20058;-66
2022/11/10 03:00:11;;;;;;;18.15;5.35;;;;;;;;;;5044507;28;20050;-66
2022/11/10 03:02:37;;;;;;;21.70;5.57;;;;;;;;;;5052827;28;20396;-66
2022/11/10 03:05:04;;;;;;;19.38;5.63;;;;;;;;;;5064067;28;20057;-67
2022/11/10 03:07:30;;;;;;;16.98;5.22;;;;;;;;;;5054528;28;20648;-66
2022/11/10 03:09:56;;;;;;;18.48;5.22;;;;;;;;;;5057893;28;20499;-67
2022/11/10 03:12:23;;;;;;;22.05;6.35;;;;;;;;;;5045205;28;20050;-66
2022/11/10 03:14:49;;;;;;;18.25;5.85;;;;;;;;;;5046350;28;20064;-66
2022/11/10 03:17:15;;;;;;;25.00;5.93;;;;;;;;;;5054441;28;20081;-67
2022/11/10 03:19:42;;;;;;;20.90;5.45;;;;;;;;;;5044430;28;20053;-67
2022/11/10 03:22:08;;;;;;;18.60;5.30;;;;;;;;;;5057911;28;20056;-66
2022/11/10 03:24:35;;;;;;;22.10;6.07;;;;;;;;;;5061831;28;20521;-66
2022/11/10 03:27:01;;;;;;;25.48;6.43;;;;;;;;;;5044197;28;20056;-66
2022/11/10 03:29:27;;;;;;;13.20;5.57;;;;;;;;;;5044923;28;20057;-66
2022/11/10 03:31:54;;;;;;;18.63;5.63;;;;;;;;;;5061014;28;20045;-66
2022/11/10 03:34:20;;;;;;;17.92;5.63;;;;;;;;;;5062964;28;20053;-66
2022/11/10 03:36:46;;;;;;;21.52;5.30;;;;;;;;;;5052215;28;20077;-67
2022/11/10 03:39:13;;;;;;;15.10;4.95;;;;;;;;;;5043790;28;20538;-66
2022/11/10 03:41:39;;;;;;;22.27;6.88;;;;;;;;;;5053002;28;20091;-66
2022/11/10 03:44:06;;;;;;;15.75;5.18;;;;;;;;;;5049107;28;20054;-67
2022/11/10 03:46:32;;;;;;;20.23;6.47;;;;;;;;;;5055121;28;20503;-66
2022/11/10 03:48:58;;;;;;;15.10;5.20;;;;;;;;;;5063108;28;20905;-66
2022/11/10 03:51:25;;;;;;;14.77;5.53;;;;;;;;;;5055768;28;20058;-68
2022/11/10 03:53:51;;;;;;;20.35;5.60;;;;;;;;;;5052486;28;20049;-67
2022/11/10 03:56:17;;;;;;;22.60;7.72;;;;;;;;;;5062008;28;20045;-67
2022/11/10 03:58:43;;;;;;;24.98;6.20;;;;;;;;;;5046910;28;20064;-65
2022/11/10 04:01:10;;;;;;;18.30;5.35;;;;;;;;;;5063257;28;20079;-66
2022/11/10 04:03:37;;;;;;;19.33;5.85;;;;;;;;;;5063934;28;20060;-66
2022/11/10 04:09:00;;;;;;;18.13;5.13;;;;;;;;;;5050943;28;20124;-66
2022/11/10 04:16:57;;;;;;;16.45;5.57;;;;;;;;;;5060089;28;20463;-65
2022/11/10 04:19:24;;;;;;;11.05;6.50;;;;;;;;;;5045569;28;20057;-66
2022/11/10 04:21:50;;;;;;;18.95;6.57;;;;;;;;;;5053859;28;20083;-66
2022/11/10 04:24:16;;;;;;;22.35;6.50;;;;;;;;;;5068245;28;20063;-66
2022/11/10 04:26:43;;;;;;;18.98;6.03;;;;;;;;;;5061984;28;20064;-67
2022/11/10 04:29:10;;;;;;;22.63;6.70;;;;;;;;;;5048604;28;20100;-66
2022/11/10 04:31:38;;;;;;;14.60;5.65;;;;;;;;;;5062612;28;20107;-66
2022/11/10 04:34:09;;;;;;;26.35;7.07;;;;;;;;;;5060048;28;20509;-67
2022/11/10 04:36:37;;;;;;;20.67;6.20;;;;;;;;;;5057920;28;20591;-66
2022/11/10 04:39:04;;;;;;;16.50;5.53;;;;;;;;;;5042562;28;20049;-67
2022/11/10 04:41:31;;;;;;;19.65;6.32;;;;;;;;;;5044640;28;20053;-67
2022/11/10 04:43:57;;;;;;;19.23;5.60;;;;;;;;;;5056402;28;20064;-66
2022/11/10 04:46:25;;;;;;;17.58;5.30;;;;;;;;;;5045433;28;20057;-67
2022/11/10 04:48:52;;;;;;;16.08;5.35;;;;;;;;;;5051838;28;20127;-67
2022/11/10 04:51:19;;;;;;;17.88;6.03;;;;;;;;;;5054809;28;20053;-66
2022/11/10 04:53:46;;;;;;;21.80;5.85;;;;;;;;;;5042220;28;20053;-66
2022/11/10 04:56:13;;;;;;;24.17;6.18;;;;;;;;;;5051502;28;20525;-66
2022/11/10 04:58:40;;;;;;;16.80;6.13;;;;;;;;;;5043245;28;20566;-65
2022/11/10 05:01:09;;;;;;;24.35;6.18;;;;;;;;;;5055725;28;20053;-66
2022/11/10 05:03:36;;;;;;;28.75;6.97;;;;;;;;;;5063260;28;20517;-65
2022/11/10 05:06:02;;;;;;;23.70;6.72;;;;;;;;;;5047967;28;20057;-66
2022/11/10 05:08:28;;;;;;;24.50;6.35;;;;;;;;;;5057988;28;20600;-65
2022/11/10 05:10:55;;;;;;;19.98;6.20;;;;;;;;;;5042358;28;20538;-67
2022/11/10 05:13:21;;;;;;;19.58;6.00;;;;;;;;;;5054916;28;20060;-66
2022/11/10 05:15:48;;;;;;;15.95;6.07;;;;;;;;;;5060018;28;20593;-65
2022/11/10 05:18:14;;;;;;;18.20;6.45;;;;;;;;;;5053846;28;20061;-66
2022/11/10 05:20:41;;;;;;;21.73;6.82;;;;;;;;;;5057791;28;20103;-67
2022/11/10 05:25:52;;;;;;;17.37;5.87;;;;;;;;;;5062367;28;20065;-66
2022/11/10 05:28:19;;;;;;;14.73;6.47;;;;;;;;;;5060218;28;20499;-66
2022/11/10 05:30:45;;;;;;;20.38;7.32;;;;;;;;;;5058300;28;20100;-67
2022/11/10 05:33:12;;;;;;;19.67;6.00;;;;;;;;;;5052490;28;20056;-66
2022/11/10 05:35:38;;;;;;;16.30;6.28;;;;;;;;;;5042414;28;20092;-66
2022/11/10 05:38:05;;;;;;;30.83;7.15;;;;;;;;;;5057133;28;20092;-66
2022/11/10 05:40:31;;;;;;;20.90;7.05;;;;;;;;;;5045962;28;20062;-67
2022/11/10 05:42:58;;;;;;;20.75;7.80;;;;;;;;;;5042139;28;20050;-67
2022/11/10 05:45:25;;;;;;;21.08;6.43;;;;;;;;;;5044900;28;20045;-67
2022/11/10 05:47:52;;;;;;;18.63;6.50;;;;;;;;;;5058081;28;20062;-65
2022/11/10 05:50:19;;;;;;;22.98;5.82;;;;;;;;;;5044660;28;20053;-66
2022/11/10 05:52:47;;;;;;;20.63;6.43;;;;;;;;;;5042271;28;20049;-67
2022/11/10 05:55:16;;;;;;;24.90;7.80;;;;;;;;;;5056214;28;20136;-66
2022/11/10 05:57:46;;;;;;;26.33;7.80;;;;;;;;;;5059861;28;20065;-65
2022/11/10 06:00:13;;;;;;;18.58;6.32;;;;;;;;;;5062217;28;20775;-66
2022/11/10 06:02:40;;;;;;;15.70;6.45;;;;;;;;;;5044283;28;20567;-67
2022/11/10 06:05:07;;;;;;;21.20;7.05;;;;;;;;;;5051568;28;20060;-66
2022/11/10 06:07:33;;;;;;;20.90;6.65;;;;;;;;;;5058096;28;20041;-66
2022/11/10 06:10:00;;;;;;;17.27;6.10;;;;;;;;;;5062694;28;20061;-66
2022/11/10 06:12:29;;;;;;;26.35;7.53;;;;;;;;;;5063998;28;20053;-66
2022/11/10 06:14:56;;;;;;;21.00;6.28;;;;;;;;;;5065449;28;20103;-66
2022/11/10 06:17:23;;;;;;;22.63;6.97;;;;;;;;;;5055462;28;20060;-66
2022/11/10 06:19:50;;;;;;;20.20;7.25;;;;;;;;;;5062238;28;20068;-66
2022/11/10 06:22:16;;;;;;;21.05;7.40;;;;;;;;;;5063369;28;20049;-67
2022/11/10 06:24:42;;;;;;;20.92;7.03;;;;;;;;;;5063680;28;20064;-67
2022/11/10 06:27:08;;;;;;;20.98;7.47;;;;;;;;;;5061579;28;20063;-67
2022/11/10 06:29:35;;;;;;;14.52;6.15;;;;;;;;;;5063664;28;20057;-66
2022/11/10 06:32:01;;;;;;;19.60;6.95;;;;;;;;;;5052288;28;20597;-67
2022/11/10 06:34:27;;;;;;;16.42;6.18;;;;;;;;;;5064984;28;20055;-66
2022/11/10 06:36:54;;;;;;;21.83;6.70;;;;;;;;;;5064234;28;20060;-67
2022/11/10 06:39:20;;;;;;;21.73;7.07;;;;;;;;;;5062270;28;20052;-67
2022/11/10 06:41:46;;;;;;;19.83;6.82;;;;;;;;;;5048984;28;20064;-68
2022/11/10 06:44:12;;;;;;;14.25;6.28;;;;;;;;;;5059322;28;20054;-67
2022/11/10 06:46:39;;;;;;;21.30;6.80;;;;;;;;;;5070996;28;20181;-68
2022/11/10 06:49:07;;;;;;;17.45;6.57;;;;;;;;;;5064568;28;20064;-68
2022/11/10 06:51:34;;;;;;;19.63;6.75;;;;;;;;;;5064863;28;20053;-68
2022/11/10 06:54:00;;;;;;;19.77;6.28;;;;;;;;;;5064626;28;20061;-69
2022/11/10 06:56:26;;;;;;;20.20;5.63;;;;;;;;;;5053756;28;20049;-68
2022/11/10 06:58:52;;;;;;;15.07;6.32;;;;;;;;;;5070939;28;20087;-67
2022/11/10 07:01:20;;;;;;;20.20;7.10;;;;;;;;;;5068981;28;20063;-67
2022/11/10 07:03:48;;;;;;;18.45;5.65;;;;;;;;;;5064854;28;20507;-68
2022/11/10 07:06:34;;;;;;;17.17;5.50;;;;;;;;;;5066575;28;20045;-69
2022/11/10 07:09:00;;;;;;;18.83;5.53;;;;;;;;;;5072666;28;20044;-67
2022/11/10 07:11:26;;;;;;;18.05;6.28;;;;;;;;;;5076443;28;20060;-67
2022/11/10 07:13:53;;;;;;;21.35;5.97;;;;;;;;;;5064955;28;20100;-68
2022/11/10 07:16:19;;;;;;;13.65;6.05;;;;;;;;;;5061563;28;20905;-67
2022/11/10 07:18:49;;;;;;;13.48;4.82;;;;;;;;;;5057663;28;20057;-69
2022/11/10 07:21:16;;;;;;;15.25;5.20;;;;;;;;;;5070575;28;21419;-68
2022/11/10 07:23:42;;;;;;;24.35;5.28;;;;;;;;;;5064754;28;20060;-69
2022/11/10 07:26:08;;;;;;;16.83;5.47;;;;;;;;;;5046247;28;20053;-69
2022/11/10 07:28:35;;;;;;;17.23;4.32;;;;;;;;;;5044628;28;20058;-69
2022/11/10 07:31:02;;;;;;;18.20;6.00;;;;;;;;;;5062541;28;20088;-68
2022/11/10 07:33:28;;;;;;;20.90;5.53;;;;;;;;;;5072295;28;20080;-69
2022/11/10 07:35:58;;;;;;;22.55;5.22;;;;;;;;;;5060381;28;20564;-69
2022/11/10 07:38:25;;;;;;;13.98;5.43;;;;;;;;;;5068880;28;20041;-68
2022/11/10 07:40:51;;;;;;;14.18;5.43;;;;;;;;;;5057549;28;20049;-69
2022/11/10 07:43:18;;;;;;;16.50;5.57;;;;;;;;;;5059993;28;20064;-68
2022/11/10 07:45:45;;;;;;;21.50;5.53;;;;;;;;;;5056234;28;20045;-68
2022/11/10 07:48:13;;;;;;;14.85;4.38;;;;;;;;;;5060338;28;20079;-72
2022/11/10 07:50:39;;;;;;;20.85;5.55;;;;;;;;;;5063322;28;20050;-69
2022/11/10 07:53:07;;;;;;;17.25;5.45;;;;;;;;;;5065653;28;20103;-69
2022/11/10 07:55:34;;;;;;;27.73;6.03;;;;;;;;;;5058888;28;20092;-68
2022/11/10 07:58:00;;;;;;;13.60;4.65;;;;;;;;;;5090245;27;20059;-69
2022/11/10 08:00:27;;;;;;;21.25;4.90;;;;;;;;;;5071737;28;20044;-69
2022/11/10 08:02:53;;;;;;;16.10;4.55;;;;;;;;;;5052878;28;20508;-69
2022/11/10 08:05:20;;;;;;;16.35;5.03;;;;;;;;;;5065217;28;20088;-70
2022/11/10 08:07:46;;;;;;;16.60;4.90;;;;;;;;;;5066792;28;20053;-70
2022/11/10 08:10:13;;;;;;;11.32;3.97;;;;;;;;;;5056699;28;20061;-68
2022/11/10 08:12:39;;;;;;;12.65;5.68;;;;;;;;;;5051899;28;20080;-69
2022/11/10 08:15:06;;;;;;;22.42;5.50;;;;;;;;;;5058267;28;20110;-70
2022/11/10 08:17:32;;;;;;;17.00;4.80;;;;;;;;;;5068672;28;20045;-68
2022/11/10 08:19:58;;;;;;;16.58;4.78;;;;;;;;;;5066510;28;20118;-69
2022/11/10 08:22:25;;;;;;;13.13;4.82;;;;;;;;;;5060710;28;20562;-70
2022/11/10 08:24:51;;;;;;;20.02;5.65;;;;;;;;;;5060953;28;20049;-69
2022/11/10 08:27:17;;;;;;;12.20;4.35;;;;;;;;;;5071888;28;20052;-68
2022/11/10 08:29:44;;;;;;;17.02;5.07;;;;;;;;;;5080839;28;20118;-68
2022/11/10 08:32:10;;;;;;;14.15;4.68;;;;;;;;;;5056929;28;20092;-68
2022/11/10 08:34:37;;;;;;;19.13;5.65;;;;;;;;;;5065568;28;20064;-67
2022/11/10 08:37:03;;;;;;;21.50;4.40;;;;;;;;;;5062224;28;20081;-68
2022/11/10 08:39:29;;;;;;;13.48;5.53;;;;;;;;;;5068805;28;20526;-68
2022/11/10 08:42:05;;;;;;;14.77;5.10;;;;;;;;;;5046580;28;20573;-69
2022/11/10 08:44:31;;;;;;;11.27;4.45;;;;;;;;;;5058437;28;20477;-69
2022/11/10 08:46:57;;;;;;;15.90;4.10;;;;;;;;;;5064787;28;20044;-69
2022/11/10 08:49:24;;;;;;;20.80;6.07;;;;;;;;;;5073389;28;20353;-68
2022/11/10 08:51:50;;;;;;;13.88;3.97;;;;;;;;;;5059851;28;20049;-69
2022/11/10 08:54:16;;;;;;;17.02;4.13;;;;;;;;;;5074063;28;20569;-68
2022/11/10 08:56:43;;;;;;;20.83;4.68;;;;;;;;;;5051094;28;20049;-68
2022/11/10 08:59:09;;;;;;;14.27;4.55;;;;;;;;;;5048547;28;20061;-68
2022/11/10 09:01:36;;;;;;;14.52;4.35;;;;;;;;;;5061832;28;20053;-68
2022/11/10 09:04:02;;;;;;;16.08;4.22;;;;;;;;;;5050597;28;20078;-69
2022/11/10 09:06:28;;;;;;;12.32;3.60;;;;;;;;;;5045270;28;20057;-69
2022/11/10 09:08:54;;;;;;;16.73;4.20;;;;;;;;;;5078238;28;20506;-70
2022/11/10 09:11:21;;;;;;;18.58;4.25;;;;;;;;;;5066141;28;20183;-70
2022/11/10 09:13:47;;;;;;;16.23;4.22;;;;;;;;;;5047325;28;20084;-68
2022/11/10 09:16:13;;;;;;;11.32;3.80;;;;;;;;;;5062131;28;20053;-68
2022/11/10 09:18:40;;;;;;;23.17;4.57;;;;;;;;;;5057046;28;20115;-70
2022/11/10 09:21:10;;;;;;;17.77;4.45;;;;;;;;;;5058785;28;20159;-70
2022/11/10 09:23:37;;;;;;;12.98;4.43;;;;;;;;;;5065746;28;20057;-68
2022/11/10 09:26:06;;;;;;;20.60;3.67;;;;;;;;;;5069661;28;20053;-69
2022/11/10 09:28:32;;;;;;;10.93;3.25;;;;;;;;;;5059347;28;20060;-69
2022/11/10 09:30:59;;;;;;;9.65;3.50;;;;;;;;;;5059427;28;20054;-68
2022/11/10 09:33:25;;;;;;;12.43;3.53;;;;;;;;;;5060609;28;20148;-66
2022/11/10 09:35:55;;;;;;;16.52;4.13;;;;;;;;;;5063640;28;20084;-69
2022/11/10 09:38:21;;;;;;;13.52;3.53;;;;;;;;;;5062282;28;20045;-68
2022/11/10 09:41:14;;;;;;;12.60;3.17;;;;;;;;;;5055772;28;20132;-70
2022/11/10 09:43:43;;;;;;;12.80;3.58;;;;;;;;;;5058859;28;20056;-69
2022/11/10 09:46:17;;;;;;;16.20;3.78;;;;;;;;;;5077605;28;20086;-68
2022/11/10 09:48:46;;;;;;;13.20;2.65;;;;;;;;;;5062398;28;20491;-69
2022/11/10 09:51:33;;;;;;;15.48;3.85;;;;;;;;;;5047696;28;20060;-68
2022/11/10 09:54:04;;;;;;;13.82;3.80;;;;;;;;;;5071689;28;20057;-68
2022/11/10 09:56:32;;;;;;;19.67;3.80;;;;;;;;;;5062951;28;20623;-69
2022/11/10 09:58:59;;;;;;;16.27;3.25;;;;;;;;;;5082067;28;20462;-69
2022/11/10 10:01:25;;;;;;;18.27;3.25;;;;;;;;;;5069562;28;20054;-69
2022/11/10 10:03:58;;;;;;;16.17;3.33;;;;;;;;;;5072301;28;20055;-68
2022/11/10 10:06:25;;;;;;;16.80;3.38;;;;;;;;;;5086702;27;20040;-67
2022/11/10 10:09:21;;;;;;;14.40;3.58;;;;;;;;;;5077876;28;20049;-69
2022/11/10 10:11:55;;;;;;;14.07;3.42;;;;;;;;;;5058519;28;20067;-67
2022/11/10 10:14:41;;;;;;;18.13;4.67;;;;;;;;;;5049362;28;20486;-68
2022/11/10 10:17:07;;;;;;;23.55;4.00;;;;;;;;;;5067079;28;20128;-68
2022/11/10 10:19:34;;;;;;;15.93;3.22;;;;;;;;;;5065734;28;20524;-67
2022/11/10 10:22:00;;;;;;;13.20;2.78;;;;;;;;;;5066415;28;20449;-68
2022/11/10 10:24:26;;;;;;;20.65;3.42;;;;;;;;;;5059962;28;20527;-69
2022/11/10 10:26:54;;;;;;;17.75;3.47;;;;;;;;;;5070817;28;20179;-69
2022/11/10 10:29:26;;;;;;;21.80;3.55;;;;;;;;;;5061500;28;20052;-68
2022/11/10 10:31:52;;;;;;;18.42;4.28;;;;;;;;;;5057788;28;20045;-69
2022/11/10 10:34:20;;;;;;;17.02;4.28;;;;;;;;;;5063931;28;20053;-69
2022/11/10 10:36:47;;;;;;;15.32;2.45;;;;;;;;;;5060243;28;20131;-69
2022/11/10 10:39:25;;;;;;;20.73;3.83;;;;;;;;;;5065265;28;20049;-68
2022/11/10 10:41:52;;;;;;;13.38;2.65;;;;;;;;;;5060381;28;20053;-69
2022/11/10 10:44:18;;;;;;;16.73;3.30;;;;;;;;;;5067677;28;20052;-68
2022/11/10 10:46:46;;;;;;;9.82;2.78;;;;;;;;;;5060707;28;20535;-69
2022/11/10 10:49:14;;;;;;;16.15;3.25;;;;;;;;;;5072329;28;20636;-68
2022/11/10 10:52:13;;;;;;;14.70;3.22;;;;;;;;;;5069025;28;20053;-67
2022/11/10 10:54:40;;;;;;;11.07;2.90;;;;;;;;;;5061974;28;20052;-68
2022/11/10 10:57:12;;;;;;;13.05;3.00;;;;;;;;;;5061608;28;20535;-67
2022/11/10 10:59:38;;;;;;;9.55;2.60;;;;;;;;;;5062037;28;20047;-68
2022/11/10 11:02:20;;;;;;;16.48;3.63;;;;;;;;;;5057902;28;21215;-68
2022/11/10 11:04:48;;;;;;;11.57;3.38;;;;;;;;;;5066783;28;20049;-69
2022/11/10 11:07:22;;;;;;;17.60;4.03;;;;;;;;;;5057409;28;20045;-67
2022/11/10 11:09:48;;;;;;;16.30;3.05;;;;;;;;;;5061083;28;20057;-68
2022/11/10 11:12:19;;;;;;;12.80;4.15;;;;;;;;;;5062895;28;20053;-69
2022/11/10 11:14:45;;;;;;;10.15;2.67;;;;;;;;;;5062512;28;20550;-69
2022/11/10 11:17:13;;;;;;;17.38;3.20;;;;;;;;;;5061789;28;20052;-68
2022/11/10 11:19:39;;;;;;;12.80;2.58;;;;;;;;;;5058568;28;20045;-66
2022/11/10 11:22:06;;;;;;;13.80;2.63;;;;;;;;;;5065329;28;20122;-68
2022/11/10 11:24:32;;;;;;;12.55;2.80;;;;;;;;;;5067625;28;20053;-67
2022/11/10 11:27:20;;;;;;;10.73;2.80;;;;;;;;;;5074502;28;20535;-66
2022/11/10 11:29:58;;;;;;;15.90;2.70;;;;;;;;;;5069086;28;20055;-66
2022/11/10 11:32:27;;;;;;;16.00;4.85;;;;;;;;;;5084311;28;20044;-67
2022/11/10 11:34:53;;;;;;;11.68;3.08;;;;;;;;;;5083515;28;20044;-67
2022/11/10 11:37:25;;;;;;;10.52;2.72;;;;;;;;;;5071667;28;20058;-67
2022/11/10 11:39:52;;;;;;;16.85;3.17;;;;;;;;;;5059784;28;20057;-67
2022/11/10 11:42:27;;;;;;;7.93;2.67;;;;;;;;;;5075825;28;20598;-68
2022/11/10 11:45:02;;;;;;;17.33;3.20;;;;;;;;;;5063312;28;20052;-67
2022/11/10 11:47:43;;;;;;;14.55;2.75;;;;;;;;;;5064466;28;20894;-66
2022/11/10 11:50:09;;;;;;;10.77;2.40;;;;;;;;;;5060146;28;20589;-67
2022/11/10 11:52:47;;;;;;;10.88;3.28;;;;;;;;;;5098374;28;20545;-67
2022/11/10 11:55:32;;;;;;;13.27;2.75;;;;;;;;;;5074543;28;20056;-67
2022/11/10 11:58:04;;;;;;;14.10;2.67;;;;;;;;;;5059929;28;20064;-67
2022/11/10 12:00:38;;;;;;;16.50;5.22;;;;;;;;;;5062338;28;20507;-67
2022/11/10 12:03:25;;;;;;;13.32;3.08;;;;;;;;;;5064521;28;20202;-68
2022/11/10 12:06:11;;;;;;;10.65;3.38;;;;;;;;;;5067967;28;20143;-68
2022/11/10 12:08:41;;;;;;;13.27;2.60;;;;;;;;;;5070266;28;20057;-67
2022/11/10 12:11:25;;;;;;;9.60;3.35;;;;;;;;;;5063491;28;20060;-68
2022/11/10 12:13:54;;;;;;;17.45;3.40;;;;;;;;;;5070690;28;20041;-67
2022/11/10 12:16:23;;;;;;;13.05;3.00;;;;;;;;;;5063466;28;20049;-67
2022/11/10 12:18:56;;;;;;;11.55;3.10;;;;;;;;;;5063530;28;20053;-70
2022/11/10 12:21:41;;;;;;;14.10;3.42;;;;;;;;;;5055989;28;20051;-67
2022/11/10 12:24:16;;;;;;;10.10;3.17;;;;;;;;;;5062389;28;20053;-66
2022/11/10 12:26:46;;;;;;;12.10;2.30;;;;;;;;;;5061287;28;20450;-67
2022/11/10 12:29:21;;;;;;;12.90;2.72;;;;;;;;;;5060441;28;20053;-68
2022/11/10 12:31:50;;;;;;;13.95;2.45;;;;;;;;;;5061531;28;20052;-68
2022/11/10 12:34:22;;;;;;;8.88;2.45;;;;;;;;;;5061344;28;20049;-67
2022/11/10 12:36:50;;;;;;;8.23;2.22;;;;;;;;;;5069249;28;20044;-66
2022/11/10 12:39:19;;;;;;;8.18;1.90;;;;;;;;;;5063033;28;20053;-65
2022/11/10 12:41:48;;;;;;;7.07;1.90;;;;;;;;;;5061229;28;20128;-66
2022/11/10 12:44:33;;;;;;;12.02;2.42;;;;;;;;;;5062131;28;20057;-66
2022/11/10 12:47:01;;;;;;;11.40;2.50;;;;;;;;;;5055984;28;20084;-66
2022/11/10 12:49:31;;;;;;;6.90;2.38;;;;;;;;;;5059755;28;20789;-65
2022/11/10 12:52:01;;;;;;;9.88;2.30;;;;;;;;;;5054161;28;20045;-67
2022/11/10 12:54:27;;;;;;;19.55;2.30;;;;;;;;;;5061095;28;20064;-66
2022/11/10 12:57:00;;;;;;;11.73;2.78;;;;;;;;;;5058486;28;20060;-67
2022/11/10 12:59:26;;;;;;;9.13;2.30;;;;;;;;;;5050820;28;20053;-66
2022/11/10 13:01:58;;;;;;;9.02;2.33;;;;;;;;;;5060116;28;20053;-67
2022/11/10 13:04:24;;;;;;;13.25;2.40;;;;;;;;;;5071959;28;20053;-68
2022/11/10 13:07:03;;;;;;;9.93;2.47;;;;;;;;;;5066218;28;20064;-68
2022/11/10 13:09:38;;;;;;;11.05;2.15;;;;;;;;;;5062766;28;20049;-67
2022/11/10 13:12:18;;;;;;;7.90;2.05;;;;;;;;;;5052204;28;20099;-67
2022/11/10 13:14:45;;;;;;;10.20;2.25;;;;;;;;;;5051116;28;20053;-68
2022/11/10 13:17:27;;;;;;;9.18;2.00;;;;;;;;;;5063740;28;20521;-68
2022/11/10 13:19:54;;;;;;;8.98;2.67;;;;;;;;;;5065829;28;20529;-69
2022/11/10 13:22:28;;;;;;;12.52;2.55;;;;;;;;;;5065960;28;20061;-68
2022/11/10 13:25:17;;;;;;;10.07;3.25;;;;;;;;;;5059434;28;20063;-69
2022/11/10 13:27:44;;;;;;;8.13;2.08;;;;;;;;;;5064863;28;20061;-69
2022/11/10 13:30:30;;;;;;;10.30;2.47;;;;;;;;;;5066067;28;20047;-68
2022/11/10 13:33:16;;;;;;;27.35;3.58;;;;;;;;;;5063542;28;20052;-67
2022/11/10 13:35:49;;;;;;;13.63;1.90;;;;;;;;;;5060311;28;20049;-66
2022/11/10 13:38:40;;;;;;;8.60;2.28;;;;;;;;;;5071911;28;20128;-68
2022/11/10 13:41:06;;;;;;;;;;;;;;;;;;5055496;28;20372;-67
2022/11/10 13:43:32;;;;;;;17.23;3.65;;;;;;;;;;5069493;28;45362;-66
2022/11/10 13:46:00;;;;;;;12.05;2.35;;;;;;;;;;5065270;28;20533;-67
2022/11/10 13:48:53;;;;;;;8.95;2.30;;;;;;;;;;5065396;28;20119;-67
2022/11/10 13:51:24;;;;;;;11.65;2.63;;;;;;;;;;5057317;28;20064;-68
2022/11/10 13:54:14;;;;;;;7.82;1.63;;;;;;;;;;5077457;28;20057;-67
2022/11/10 13:57:03;;;;;;;10.32;1.83;;;;;;;;;;5022037;28;20080;-64
2022/11/10 13:59:30;;;;;;;6.25;2.05;;;;;;;;;;5029639;28;20050;-65
2022/11/10 14:02:15;;;;;;;11.65;2.35;;;;;;;;;;5022359;28;20501;-65
2022/11/10 14:04:42;;;;;;;10.53;2.30;;;;;;;;;;5007438;28;20054;-66
2022/11/10 14:07:13;;;;;;;9.95;2.33;;;;;;;;;;5007489;28;20767;-65
2022/11/10 14:09:42;;;;;;;6.93;1.70;;;;;;;;;;5032635;28;20050;-70
2022/11/10 14:12:27;;;;;;;8.50;1.92;;;;;;;;;;5034363;28;20046;-67
2022/11/10 14:14:59;;;;;;;10.25;2.00;;;;;;;;;;5019614;28;20057;-66
2022/11/10 14:17:27;;;;;;;16.77;2.28;;;;;;;;;;5022663;28;20096;-68
2022/11/10 14:19:53;;;;;;;11.00;2.30;;;;;;;;;;5024364;28;20061;-67
2022/11/10 14:22:33;;;;;;;8.50;1.80;;;;;;;;;;5039099;28;20578;-68
2022/11/10 14:25:03;;;;;;;10.68;2.10;;;;;;;;;;5002180;28;20062;-68
2022/11/10 14:27:32;;;;;;;8.20;1.95;;;;;;;;;;4989669;28;20157;-68
2022/11/10 14:30:13;;;;;;;9.93;1.90;;;;;;;;;;5041044;28;20156;-68
2022/11/10 14:32:40;;;;;;;10.65;1.98;;;;;;;;;;5017945;28;20046;-68
2022/11/10 14:35:16;;;;;;;7.68;1.80;;;;;;;;;;5049505;28;20053;-70
2022/11/10 14:37:42;;;;;;;9.95;2.10;;;;;;;;;;5070697;28;20507;-68
2022/11/10 14:40:13;;;;;;;20.48;2.20;;;;;;;;;;5074025;28;20060;-67
2022/11/10 14:42:39;;;;;;;8.02;2.20;;;;;;;;;;5064581;28;20053;-68
2022/11/10 14:45:06;;;;;;;7.82;1.80;;;;;;;;;;5060122;28;20073;-68
2022/11/10 14:47:34;;;;;;;9.55;2.05;;;;;;;;;;5044536;28;20139;-68
2022/11/10 14:50:05;;;;;;;21.13;3.22;;;;;;;;;;5053645;28;20083;-68
2022/11/10 14:52:35;;;;;;;11.23;2.13;;;;;;;;;;5062756;28;20053;-68
2022/11/10 14:55:05;;;;;;;11.65;2.83;;;;;;;;;;5064388;28;20110;-68